Time;durP1;ratioP1;P1;durP2;ratioP2;P2;SDS_P1;SDS_P2;PMS_P1;PMS_P2;Temp;Humidity;BMP_temperature;BMP_pressure;BME280_temperature;BME280_humidity;BME280_pressure;Samples;Min_cycle;Max_cycle;Signal;HPM_P1;HPM_P2
2022/11/08 00:02:24;;;;;;;1.20;1.10;;;;;;;;;;5098916;28;20295;-67
2022/11/08 00:04:53;;;;;;;1.83;1.60;;;;;;;;;;5099014;28;20229;-67
2022/11/08 00:40:18;;;;;;;2.50;1.30;;;;;;;;;;5098691;28;20184;-65
2022/11/08 00:42:46;;;;;;;1.40;1.30;;;;;;;;;;5098344;28;20209;-67
2022/11/08 00:45:14;;;;;;;7.97;1.70;;;;;;;;;;5098143;28;20232;-67
2022/11/08 00:47:42;;;;;;;2.43;1.50;;;;;;;;;;5097914;28;20209;-67
2022/11/08 00:50:10;;;;;;;2.13;1.40;;;;;;;;;;5098190;28;20676;-67
2022/11/08 00:52:38;;;;;;;4.53;2.00;;;;;;;;;;5098442;28;20201;-68
2022/11/08 00:55:06;;;;;;;1.80;1.60;;;;;;;;;;5098397;28;20225;-68
2022/11/08 00:57:36;;;;;;;3.87;1.70;;;;;;;;;;5097705;28;20237;-67
2022/11/08 01:00:24;;;;;;;3.80;1.97;;;;;;;;;;5092336;28;20255;-67
2022/11/08 01:03:17;;;;;;;2.27;1.80;;;;;;;;;;5097952;28;20216;-67
2022/11/08 01:05:41;;;;;;;2.57;2.30;;;;;;;;;;5097677;28;20209;-68
2022/11/08 01:08:09;;;;;;;4.43;2.17;;;;;;;;;;5097846;28;20575;-67
2022/11/08 01:10:37;;;;;;;4.00;2.07;;;;;;;;;;5098054;28;20209;-65
2022/11/08 01:13:06;;;;;;;2.60;2.40;;;;;;;;;;5097798;28;20289;-67
2022/11/08 01:15:35;;;;;;;3.30;2.40;;;;;;;;;;5097977;28;20212;-66
2022/11/08 01:18:03;;;;;;;3.77;2.50;;;;;;;;;;5097705;28;20204;-67
2022/11/08 01:20:31;;;;;;;3.83;2.33;;;;;;;;;;5097921;28;20292;-66
2022/11/08 01:22:59;;;;;;;3.63;2.00;;;;;;;;;;5097738;28;20224;-66
2022/11/08 01:25:27;;;;;;;2.73;2.23;;;;;;;;;;5097875;28;20213;-67
2022/11/08 01:27:55;;;;;;;2.87;2.20;;;;;;;;;;5097410;28;20205;-66
2022/11/08 01:30:24;;;;;;;3.60;2.37;;;;;;;;;;5097856;28;20220;-68
2022/11/08 01:32:52;;;;;;;4.17;2.40;;;;;;;;;;5097599;28;20205;-66
2022/11/08 01:35:20;;;;;;;3.30;2.27;;;;;;;;;;5097714;28;20229;-67
2022/11/08 01:37:48;;;;;;;5.13;2.20;;;;;;;;;;5093742;28;20205;-66
2022/11/08 01:40:16;;;;;;;5.03;2.33;;;;;;;;;;5097823;28;20205;-67
2022/11/08 01:42:44;;;;;;;3.53;2.20;;;;;;;;;;5097290;28;20568;-66
2022/11/08 01:45:12;;;;;;;3.37;2.37;;;;;;;;;;5097567;28;20236;-66
2022/11/08 01:47:41;;;;;;;4.53;2.27;;;;;;;;;;5097286;28;20257;-67
2022/11/08 01:50:11;;;;;;;3.33;2.10;;;;;;;;;;5097474;28;20699;-67
2022/11/08 01:52:42;;;;;;;5.80;2.40;;;;;;;;;;5097418;28;20691;-66
2022/11/08 01:55:13;;;;;;;2.30;2.10;;;;;;;;;;5097650;28;20233;-68
2022/11/08 01:57:44;;;;;;;3.00;2.13;;;;;;;;;;5097021;28;20244;-68
2022/11/08 02:00:12;;;;;;;3.37;2.07;;;;;;;;;;5097644;28;20221;-67
2022/11/08 02:02:43;;;;;;;4.13;2.03;;;;;;;;;;5097018;28;20205;-67
2022/11/08 02:05:23;;;;;;;3.03;2.00;;;;;;;;;;5097392;28;20225;-67
2022/11/08 02:07:56;;;;;;;6.00;2.10;;;;;;;;;;5096352;28;20633;-69
2022/11/08 02:10:26;;;;;;;2.10;1.90;;;;;;;;;;5097545;28;20205;-68
2022/11/08 02:12:54;;;;;;;5.37;2.07;;;;;;;;;;5097288;28;20208;-67
2022/11/08 02:15:24;;;;;;;3.23;1.73;;;;;;;;;;5097272;28;20233;-68
2022/11/08 02:17:53;;;;;;;1.63;1.50;;;;;;;;;;5096815;28;20202;-68
2022/11/08 02:20:21;;;;;;;2.33;1.60;;;;;;;;;;5097158;28;20665;-68
2022/11/08 02:22:53;;;;;;;3.67;1.77;;;;;;;;;;5099404;28;20205;-67
2022/11/08 02:25:23;;;;;;;2.30;1.83;;;;;;;;;;5100886;28;20696;-68
2022/11/08 02:27:51;;;;;;;6.37;1.77;;;;;;;;;;5100767;28;20214;-68
2022/11/08 02:30:19;;;;;;;4.80;1.70;;;;;;;;;;5101163;28;20218;-67
2022/11/08 02:32:47;;;;;;;3.43;1.40;;;;;;;;;;5099805;28;20200;-68
2022/11/08 02:35:16;;;;;;;2.23;1.40;;;;;;;;;;5100984;28;20233;-67
2022/11/08 02:37:45;;;;;;;4.97;1.87;;;;;;;;;;5100875;28;20201;-68
2022/11/08 02:40:13;;;;;;;3.17;1.40;;;;;;;;;;5101110;28;20220;-68
2022/11/08 02:42:42;;;;;;;2.43;1.60;;;;;;;;;;5100824;28;20201;-66
2022/11/08 02:45:10;;;;;;;1.50;1.40;;;;;;;;;;5100747;28;20232;-68
2022/11/08 02:47:38;;;;;;;2.73;1.60;;;;;;;;;;5100445;28;20206;-68
2022/11/08 02:50:07;;;;;;;1.93;1.37;;;;;;;;;;5100757;28;20201;-68
2022/11/08 02:52:35;;;;;;;1.30;1.20;;;;;;;;;;5100500;28;20198;-68
2022/11/08 02:55:02;;;;;;;2.30;1.13;;;;;;;;;;5100562;28;20242;-67
2022/11/08 02:57:31;;;;;;;1.97;1.67;;;;;;;;;;5100121;28;20256;-68
2022/11/08 03:00:01;;;;;;;3.87;1.40;;;;;;;;;;5100388;28;20205;-68
2022/11/08 03:02:28;;;;;;;3.20;1.40;;;;;;;;;;5099653;28;20205;-68
2022/11/08 03:04:56;;;;;;;1.63;1.43;;;;;;;;;;5100135;28;20233;-69
2022/11/08 03:07:24;;;;;;;1.00;1.00;;;;;;;;;;5100295;28;20630;-68
2022/11/08 03:09:52;;;;;;;1.17;1.07;;;;;;;;;;5100342;28;20205;-68
2022/11/08 03:12:20;;;;;;;1.90;1.20;;;;;;;;;;5099817;28;20653;-68
2022/11/08 03:14:49;;;;;;;1.93;1.17;;;;;;;;;;5100162;28;20226;-67
2022/11/08 03:17:18;;;;;;;1.30;1.20;;;;;;;;;;5099903;28;20197;-65
2022/11/08 03:19:46;;;;;;;4.10;1.20;;;;;;;;;;5099987;28;20210;-66
2022/11/08 03:22:15;;;;;;;2.53;1.20;;;;;;;;;;5099583;28;20209;-66
2022/11/08 03:24:42;;;;;;;0.90;0.90;;;;;;;;;;5099849;28;20689;-65
2022/11/08 03:27:12;;;;;;;1.27;1.10;;;;;;;;;;5099638;28;20255;-65
2022/11/08 03:29:40;;;;;;;1.27;0.90;;;;;;;;;;5099385;28;20198;-66
2022/11/08 03:32:08;;;;;;;2.27;1.27;;;;;;;;;;5099531;28;20212;-66
2022/11/08 03:34:37;;;;;;;1.37;1.00;;;;;;;;;;5096337;28;20225;-66
2022/11/08 03:37:06;;;;;;;0.80;0.80;;;;;;;;;;5099583;28;20198;-66
2022/11/08 03:39:34;;;;;;;1.10;1.00;;;;;;;;;;5097527;28;20256;-65
2022/11/08 03:42:03;;;;;;;1.17;1.03;;;;;;;;;;5099187;28;20213;-67
2022/11/08 03:44:31;;;;;;;1.10;1.00;;;;;;;;;;5098558;28;20251;-67
2022/11/08 03:46:59;;;;;;;1.73;1.10;;;;;;;;;;5099254;28;20215;-66
2022/11/08 03:49:27;;;;;;;1.80;1.00;;;;;;;;;;5099644;28;20212;-66
2022/11/08 03:51:57;;;;;;;2.43;1.30;;;;;;;;;;5099541;28;20201;-65
2022/11/08 03:54:25;;;;;;;0.83;0.83;;;;;;;;;;5099542;28;20230;-67
2022/11/08 03:56:53;;;;;;;1.60;1.00;;;;;;;;;;5099273;28;20574;-67
2022/11/08 03:59:20;;;;;;;1.13;1.00;;;;;;;;;;5099277;28;20201;-68
2022/11/08 04:01:48;;;;;;;2.03;0.93;;;;;;;;;;5097604;28;20216;-68
2022/11/08 04:04:16;;;;;;;0.90;0.90;;;;;;;;;;5098600;28;20635;-67
2022/11/08 04:06:44;;;;;;;1.03;0.90;;;;;;;;;;5098796;28;20206;-65
2022/11/08 04:09:14;;;;;;;1.30;0.80;;;;;;;;;;5098849;28;20201;-67
2022/11/08 04:21:17;;;;;;;1.97;1.00;;;;;;;;;;5095524;28;20212;-66
2022/11/08 04:22:50;;;;;;;3.70;1.37;;;;;;;;;;5075891;28;20202;-66
2022/11/08 04:25:19;;;;;;;1.97;1.20;;;;;;;;;;5098666;28;20236;-66
2022/11/08 04:27:47;;;;;;;3.87;1.57;;;;;;;;;;5098757;28;20209;-66
2022/11/08 04:30:15;;;;;;;1.30;1.20;;;;;;;;;;5097829;28;20205;-65
2022/11/08 04:32:43;;;;;;;1.93;1.20;;;;;;;;;;5095955;28;20197;-67
2022/11/08 04:35:10;;;;;;;1.70;1.30;;;;;;;;;;5098593;28;20233;-65
2022/11/08 04:37:38;;;;;;;1.10;1.00;;;;;;;;;;5097230;28;20209;-66
2022/11/08 04:40:07;;;;;;;1.07;0.93;;;;;;;;;;5098640;28;20216;-67
2022/11/08 04:42:36;;;;;;;1.07;0.83;;;;;;;;;;5098458;28;20214;-67
2022/11/08 04:45:04;;;;;;;1.40;0.80;;;;;;;;;;5098210;28;20225;-65
2022/11/08 04:47:32;;;;;;;2.60;0.80;;;;;;;;;;5098095;28;20217;-66
2022/11/08 04:50:08;;;;;;;1.20;1.10;;;;;;;;;;5098521;28;20205;-66
2022/11/08 04:52:36;;;;;;;1.10;1.00;;;;;;;;;;5098467;28;20212;-66
2022/11/08 04:55:04;;;;;;;0.80;0.80;;;;;;;;;;5098258;28;20221;-67
2022/11/08 04:57:32;;;;;;;0.83;0.83;;;;;;;;;;5098006;28;20237;-66
2022/11/08 05:00:01;;;;;;;0.77;0.77;;;;;;;;;;5098083;28;20213;-65
2022/11/08 05:02:29;;;;;;;1.10;0.80;;;;;;;;;;5097203;28;20202;-65
2022/11/08 05:04:58;;;;;;;1.43;1.27;;;;;;;;;;5096684;28;20320;-65
2022/11/08 05:07:26;;;;;;;0.70;0.60;;;;;;;;;;5091630;28;20673;-66
2022/11/08 05:09:54;;;;;;;1.13;1.03;;;;;;;;;;5096837;28;20296;-65
2022/11/08 05:12:28;;;;;;;1.03;1.00;;;;;;;;;;5096704;28;20236;-66
2022/11/08 05:14:56;;;;;;;1.63;0.83;;;;;;;;;;5097398;28;20224;-67
2022/11/08 05:17:26;;;;;;;4.13;1.27;;;;;;;;;;5095939;28;20257;-67
2022/11/08 05:25:25;;;;;;;1.30;0.90;;;;;;;;;;5097352;28;20220;-65
2022/11/08 05:27:53;;;;;;;1.30;1.00;;;;;;;;;;5094829;28;20612;-65
2022/11/08 05:30:21;;;;;;;1.17;1.07;;;;;;;;;;5096215;28;20197;-66
2022/11/08 05:32:52;;;;;;;2.03;1.10;;;;;;;;;;5097744;28;20551;-65
2022/11/08 05:35:21;;;;;;;1.07;0.80;;;;;;;;;;5097719;28;20731;-65
2022/11/08 05:37:49;;;;;;;0.80;0.80;;;;;;;;;;5097259;28;20213;-68
2022/11/08 05:40:17;;;;;;;0.73;0.73;;;;;;;;;;5097450;28;20205;-65
2022/11/08 05:42:45;;;;;;;2.00;1.00;;;;;;;;;;5097738;28;20215;-65
2022/11/08 05:45:13;;;;;;;1.20;1.10;;;;;;;;;;5097774;28;20236;-65
2022/11/08 05:47:44;;;;;;;2.20;1.27;;;;;;;;;;5096885;28;20197;-65
2022/11/08 05:50:13;;;;;;;0.93;0.93;;;;;;;;;;5097498;28;20193;-66
2022/11/08 05:52:45;;;;;;;1.73;1.00;;;;;;;;;;5094948;28;20229;-67
2022/11/08 05:55:13;;;;;;;1.10;1.00;;;;;;;;;;5096775;28;20243;-67
2022/11/08 05:57:42;;;;;;;2.67;1.30;;;;;;;;;;5095667;28;20243;-66
2022/11/08 06:00:10;;;;;;;1.23;1.10;;;;;;;;;;5100923;28;20201;-66
2022/11/08 06:02:39;;;;;;;1.00;1.00;;;;;;;;;;5101136;28;20205;-66
2022/11/08 06:05:07;;;;;;;0.60;0.60;;;;;;;;;;5100217;28;20730;-65
2022/11/08 06:07:37;;;;;;;0.83;0.70;;;;;;;;;;5101463;28;20198;-66
2022/11/08 06:10:06;;;;;;;2.23;1.23;;;;;;;;;;5101626;28;20206;-67
2022/11/08 06:12:33;;;;;;;1.80;1.07;;;;;;;;;;5101026;28;20276;-65
2022/11/08 06:15:01;;;;;;;1.53;1.10;;;;;;;;;;5101327;28;20236;-65
2022/11/08 06:17:30;;;;;;;1.30;1.20;;;;;;;;;;5100938;28;20227;-65
2022/11/08 06:19:58;;;;;;;1.33;1.10;;;;;;;;;;5101301;28;20201;-65
2022/11/08 06:22:26;;;;;;;1.00;0.90;;;;;;;;;;5101127;28;20231;-65
2022/11/08 06:24:55;;;;;;;1.03;0.97;;;;;;;;;;5101029;28;20233;-65
2022/11/08 06:27:23;;;;;;;0.90;0.90;;;;;;;;;;5100644;28;20194;-65
2022/11/08 06:29:51;;;;;;;1.13;0.87;;;;;;;;;;5100997;28;20218;-66
2022/11/08 06:32:19;;;;;;;1.10;1.10;;;;;;;;;;5100384;28;20206;-66
2022/11/08 06:34:47;;;;;;;0.73;0.73;;;;;;;;;;5099510;28;20232;-66
2022/11/08 06:37:15;;;;;;;1.33;1.20;;;;;;;;;;5099915;28;20217;-64
2022/11/08 06:39:43;;;;;;;1.03;0.77;;;;;;;;;;5100456;28;20217;-67
2022/11/08 06:42:13;;;;;;;1.80;0.90;;;;;;;;;;5100015;28;20209;-67
2022/11/08 06:44:41;;;;;;;1.37;0.90;;;;;;;;;;5100321;28;20229;-66
2022/11/08 06:47:09;;;;;;;2.93;1.20;;;;;;;;;;5100182;28;20233;-64
2022/11/08 06:49:37;;;;;;;2.10;1.00;;;;;;;;;;5100375;28;20206;-64
2022/11/08 06:52:05;;;;;;;0.80;0.80;;;;;;;;;;5100504;28;20208;-64
2022/11/08 06:54:33;;;;;;;2.77;1.03;;;;;;;;;;5100290;28;20233;-64
2022/11/08 06:57:01;;;;;;;2.20;0.80;;;;;;;;;;5100224;28;20726;-63
2022/11/08 06:59:30;;;;;;;1.17;1.00;;;;;;;;;;5099222;28;20205;-64
2022/11/08 07:01:58;;;;;;;1.70;0.80;;;;;;;;;;5098751;28;20679;-64
2022/11/08 07:04:26;;;;;;;0.80;0.80;;;;;;;;;;5100350;28;20214;-65
2022/11/08 07:06:55;;;;;;;1.53;0.90;;;;;;;;;;5100290;28;20587;-64
2022/11/08 07:09:23;;;;;;;2.00;1.00;;;;;;;;;;5100138;28;20202;-64
2022/11/08 07:11:51;;;;;;;2.17;1.07;;;;;;;;;;5098965;28;20205;-64
2022/11/08 07:14:19;;;;;;;1.37;1.03;;;;;;;;;;5099936;28;20275;-64
2022/11/08 07:16:49;;;;;;;0.80;0.80;;;;;;;;;;5096285;28;20627;-64
2022/11/08 07:19:17;;;;;;;0.83;0.77;;;;;;;;;;5098734;28;20198;-64
2022/11/08 07:21:45;;;;;;;3.87;1.00;;;;;;;;;;5100141;28;20201;-65
2022/11/08 07:24:13;;;;;;;1.10;1.10;;;;;;;;;;5099577;28;20633;-64
2022/11/08 07:26:41;;;;;;;3.50;1.10;;;;;;;;;;5099916;28;20206;-64
2022/11/08 07:29:09;;;;;;;1.93;1.00;;;;;;;;;;5099636;28;20251;-64
2022/11/08 07:31:42;;;;;;;2.17;1.43;;;;;;;;;;5099500;28;20250;-64
2022/11/08 07:34:12;;;;;;;1.60;0.97;;;;;;;;;;5099733;28;20320;-64
2022/11/08 07:36:43;;;;;;;2.30;1.17;;;;;;;;;;5099705;28;20263;-65
2022/11/08 07:39:11;;;;;;;2.93;1.03;;;;;;;;;;5099810;28;20202;-65
2022/11/08 07:41:41;;;;;;;1.53;1.00;;;;;;;;;;5099648;28;20202;-64
2022/11/08 07:44:10;;;;;;;1.73;1.00;;;;;;;;;;5099414;28;20692;-66
2022/11/08 07:46:38;;;;;;;1.50;1.37;;;;;;;;;;5099646;28;20281;-65
2022/11/08 07:49:06;;;;;;;1.20;1.10;;;;;;;;;;5098617;28;20626;-64
2022/11/08 07:51:36;;;;;;;0.87;0.87;;;;;;;;;;5099316;28;20572;-64
2022/11/08 07:54:04;;;;;;;1.27;1.17;;;;;;;;;;5099305;28;20253;-64
2022/11/08 07:56:32;;;;;;;1.00;0.80;;;;;;;;;;5096814;28;20237;-64
2022/11/08 07:59:00;;;;;;;2.30;1.10;;;;;;;;;;5098650;28;20209;-64
2022/11/08 08:01:29;;;;;;;1.73;0.90;;;;;;;;;;5098804;28;20267;-64
2022/11/08 08:03:57;;;;;;;0.93;0.90;;;;;;;;;;5099117;28;20362;-64
2022/11/08 08:06:25;;;;;;;1.57;1.13;;;;;;;;;;5098755;28;20590;-65
2022/11/08 08:08:55;;;;;;;1.23;0.80;;;;;;;;;;5099194;28;20280;-67
2022/11/08 08:11:23;;;;;;;1.70;1.20;;;;;;;;;;5098965;28;20233;-67
2022/11/08 08:13:56;;;;;;;1.03;0.93;;;;;;;;;;5098475;28;20230;-66
2022/11/08 08:16:24;;;;;;;1.13;0.70;;;;;;;;;;5098720;28;20198;-66
2022/11/08 08:18:52;;;;;;;3.77;1.00;;;;;;;;;;5084164;28;20224;-69
2022/11/08 08:21:23;;;;;;;0.87;0.87;;;;;;;;;;5097197;28;20206;-68
2022/11/08 08:23:52;;;;;;;2.90;1.00;;;;;;;;;;5097654;28;20251;-68
2022/11/08 08:26:21;;;;;;;2.60;1.10;;;;;;;;;;5098460;28;20197;-66
2022/11/08 08:28:49;;;;;;;2.90;1.30;;;;;;;;;;5098177;28;20308;-70
2022/11/08 08:31:17;;;;;;;2.37;1.00;;;;;;;;;;5098104;28;20254;-70
2022/11/08 08:33:45;;;;;;;1.20;0.90;;;;;;;;;;5098587;28;20595;-70
2022/11/08 08:36:13;;;;;;;2.17;1.00;;;;;;;;;;5098250;28;20259;-70
2022/11/08 08:38:41;;;;;;;1.93;0.80;;;;;;;;;;5098327;28;20225;-70
2022/11/08 08:41:11;;;;;;;1.73;1.00;;;;;;;;;;5098338;28;20267;-69
2022/11/08 08:43:40;;;;;;;1.80;1.00;;;;;;;;;;5098335;28;20228;-69
2022/11/08 08:46:08;;;;;;;1.50;0.60;;;;;;;;;;5098055;28;20217;-69
2022/11/08 08:48:37;;;;;;;2.30;0.90;;;;;;;;;;5093381;28;20662;-67
2022/11/08 08:51:05;;;;;;;2.00;1.00;;;;;;;;;;5094626;28;20197;-68
2022/11/08 08:53:33;;;;;;;3.03;1.10;;;;;;;;;;5098204;28;20776;-68
2022/11/08 08:56:04;;;;;;;1.80;0.90;;;;;;;;;;5098072;28;20224;-69
2022/11/08 08:58:32;;;;;;;1.10;1.00;;;;;;;;;;5098002;28;20261;-69
2022/11/08 09:01:02;;;;;;;1.53;0.83;;;;;;;;;;5096754;28;20612;-69
2022/11/08 09:03:50;;;;;;;1.77;0.80;;;;;;;;;;5097597;28;20237;-68
2022/11/08 09:06:18;;;;;;;2.87;0.97;;;;;;;;;;5098222;28;20205;-68
2022/11/08 09:08:48;;;;;;;2.53;0.90;;;;;;;;;;5097958;28;20214;-69
2022/11/08 09:11:16;;;;;;;1.73;0.73;;;;;;;;;;5098268;28;20222;-68
2022/11/08 09:13:44;;;;;;;1.07;0.93;;;;;;;;;;5096450;28;20229;-69
2022/11/08 09:16:14;;;;;;;1.60;0.90;;;;;;;;;;5095995;28;20542;-69
2022/11/08 09:18:42;;;;;;;3.07;1.10;;;;;;;;;;5094716;28;20325;-69
2022/11/08 09:21:10;;;;;;;1.60;0.80;;;;;;;;;;5097763;28;20273;-69
2022/11/08 09:23:40;;;;;;;1.63;0.80;;;;;;;;;;5097563;28;20225;-69
2022/11/08 09:26:08;;;;;;;1.70;1.07;;;;;;;;;;5097700;28;20725;-69
2022/11/08 09:28:39;;;;;;;2.53;1.00;;;;;;;;;;5097723;28;20206;-69
2022/11/08 09:31:08;;;;;;;2.17;1.10;;;;;;;;;;5097451;28;20292;-69
2022/11/08 09:33:39;;;;;;;3.27;0.70;;;;;;;;;;5097442;28;20213;-69
2022/11/08 09:36:07;;;;;;;2.00;1.20;;;;;;;;;;5097465;28;20212;-69
2022/11/08 09:38:36;;;;;;;1.00;0.90;;;;;;;;;;5097462;28;20256;-69
2022/11/08 09:41:24;;;;;;;2.60;1.27;;;;;;;;;;5097504;28;20212;-69
2022/11/08 09:44:03;;;;;;;1.33;1.00;;;;;;;;;;5097178;28;20308;-69
2022/11/08 09:46:36;;;;;;;2.03;0.90;;;;;;;;;;5095757;28;20288;-69
2022/11/08 09:49:06;;;;;;;0.80;0.80;;;;;;;;;;5089895;28;20212;-69
2022/11/08 09:51:35;;;;;;;1.97;0.93;;;;;;;;;;5096279;28;20254;-69
2022/11/08 09:54:05;;;;;;;1.50;0.80;;;;;;;;;;5097410;28;20260;-69
2022/11/08 09:56:35;;;;;;;0.80;0.70;;;;;;;;;;5097353;28;20272;-69
2022/11/08 09:59:06;;;;;;;1.63;1.00;;;;;;;;;;5097114;28;20225;-68
2022/11/08 10:01:35;;;;;;;1.30;0.80;;;;;;;;;;5097069;28;20237;-69
2022/11/08 10:04:07;;;;;;;1.93;1.07;;;;;;;;;;5094694;28;20226;-69
2022/11/08 10:06:49;;;;;;;3.63;1.03;;;;;;;;;;5090418;28;20212;-69
2022/11/08 10:09:23;;;;;;;3.47;1.63;;;;;;;;;;5083862;28;20603;-69
2022/11/08 10:12:00;;;;;;;0.83;0.83;;;;;;;;;;5086290;28;20676;-70
2022/11/08 10:14:35;;;;;;;1.20;1.10;;;;;;;;;;5097151;28;20616;-69
2022/11/08 10:17:28;;;;;;;4.37;1.03;;;;;;;;;;5093869;28;20206;-71
2022/11/08 10:20:03;;;;;;;2.57;1.00;;;;;;;;;;5096210;28;20312;-68
2022/11/08 10:22:40;;;;;;;4.43;1.00;;;;;;;;;;5088294;28;20284;-70
2022/11/08 10:25:17;;;;;;;1.10;1.00;;;;;;;;;;5092876;28;20227;-70
2022/11/08 10:27:45;;;;;;;1.37;1.10;;;;;;;;;;5097027;28;20679;-70
2022/11/08 10:30:17;;;;;;;1.23;0.90;;;;;;;;;;5095748;28;20284;-69
2022/11/08 10:32:48;;;;;;;2.13;1.00;;;;;;;;;;5097139;28;20202;-68
2022/11/08 10:35:21;;;;;;;2.00;1.00;;;;;;;;;;5089951;28;20227;-69
2022/11/08 10:37:50;;;;;;;2.27;1.07;;;;;;;;;;5097302;28;20209;-71
2022/11/08 10:40:24;;;;;;;2.07;1.10;;;;;;;;;;5095029;28;20221;-70
2022/11/08 10:42:56;;;;;;;2.00;1.10;;;;;;;;;;5097585;28;20243;-70
2022/11/08 10:45:24;;;;;;;1.70;1.23;;;;;;;;;;5100643;28;20261;-71
2022/11/08 10:47:55;;;;;;;4.27;1.23;;;;;;;;;;5100704;28;20233;-70
2022/11/08 10:50:30;;;;;;;1.60;1.13;;;;;;;;;;5093335;28;20676;-70
2022/11/08 10:53:00;;;;;;;4.37;1.00;;;;;;;;;;5100371;28;20546;-68
2022/11/08 10:55:29;;;;;;;4.43;1.00;;;;;;;;;;5100032;28;20657;-71
2022/11/08 10:57:57;;;;;;;1.33;0.90;;;;;;;;;;5100036;28;20248;-69
2022/11/08 11:00:28;;;;;;;122.40;64.97;;;;;;;;;;5097026;28;20221;-71
2022/11/08 11:02:58;;;;;;;7.73;4.40;;;;;;;;;;5100416;28;20232;-71
2022/11/08 11:05:29;;;;;;;1.53;1.40;;;;;;;;;;5100448;28;20198;-70
2022/11/08 11:07:59;;;;;;;1.67;0.90;;;;;;;;;;5101341;28;20212;-70
2022/11/08 11:10:29;;;;;;;2.13;1.20;;;;;;;;;;5100814;28;20229;-70
2022/11/08 11:13:02;;;;;;;5.47;1.00;;;;;;;;;;5100623;28;20205;-71
2022/11/08 11:15:34;;;;;;;0.90;0.90;;;;;;;;;;5100208;28;20205;-68
2022/11/08 11:18:02;;;;;;;1.57;1.23;;;;;;;;;;5090019;28;20207;-70
2022/11/08 11:20:31;;;;;;;2.43;1.13;;;;;;;;;;5099908;28;20687;-72
2022/11/08 11:23:00;;;;;;;1.33;0.87;;;;;;;;;;5100224;28;20217;-71
2022/11/08 11:25:28;;;;;;;1.20;1.00;;;;;;;;;;5100476;28;20202;-69
2022/11/08 11:27:57;;;;;;;1.53;0.87;;;;;;;;;;5099660;28;20622;-70
2022/11/08 11:30:28;;;;;;;1.43;0.97;;;;;;;;;;5099825;28;20652;-70
2022/11/08 11:32:58;;;;;;;1.70;1.00;;;;;;;;;;5100168;28;20212;-71
2022/11/08 11:35:29;;;;;;;0.90;0.90;;;;;;;;;;5098079;28;20203;-68
2022/11/08 11:37:59;;;;;;;1.73;0.80;;;;;;;;;;5102304;28;20220;-68
2022/11/08 11:40:30;;;;;;;2.27;1.10;;;;;;;;;;5099808;28;20225;-68
2022/11/08 11:43:02;;;;;;;1.03;0.70;;;;;;;;;;5099556;28;20197;-70
2022/11/08 11:45:31;;;;;;;2.37;1.00;;;;;;;;;;5099513;28;20206;-71
2022/11/08 11:48:02;;;;;;;2.13;0.87;;;;;;;;;;5098832;28;20202;-70
2022/11/08 11:50:32;;;;;;;1.87;0.90;;;;;;;;;;5099160;28;20202;-69
2022/11/08 11:53:03;;;;;;;2.60;1.10;;;;;;;;;;5096987;28;20194;-69
2022/11/08 11:55:38;;;;;;;1.53;1.10;;;;;;;;;;5099075;28;20237;-69
2022/11/08 11:58:12;;;;;;;2.30;1.23;;;;;;;;;;5098265;28;20247;-70
2022/11/08 12:00:44;;;;;;;7.10;1.30;;;;;;;;;;5096317;28;20222;-67
2022/11/08 12:03:20;;;;;;;1.47;1.27;;;;;;;;;;5098501;28;20212;-71
2022/11/08 12:05:56;;;;;;;2.90;1.10;;;;;;;;;;5097180;28;20201;-69
2022/11/08 12:08:31;;;;;;;1.37;0.83;;;;;;;;;;5096601;28;20262;-69
2022/11/08 12:11:14;;;;;;;1.03;1.00;;;;;;;;;;5095697;28;20189;-69
2022/11/08 12:13:48;;;;;;;3.43;1.10;;;;;;;;;;5094674;28;20218;-69
2022/11/08 12:16:25;;;;;;;2.00;1.17;;;;;;;;;;5095606;28;20197;-69
2022/11/08 12:18:59;;;;;;;3.20;1.30;;;;;;;;;;5097776;28;20211;-69
2022/11/08 12:21:32;;;;;;;1.63;0.90;;;;;;;;;;5096692;28;20197;-69
2022/11/08 12:24:30;;;;;;;1.93;0.97;;;;;;;;;;5095381;28;20692;-69
2022/11/08 12:27:04;;;;;;;1.63;1.13;;;;;;;;;;5009607;28;20203;-69
2022/11/08 12:29:36;;;;;;;1.07;1.00;;;;;;;;;;5082172;28;20248;-68
2022/11/08 12:32:14;;;;;;;1.67;1.00;;;;;;;;;;5097320;28;20202;-67
2022/11/08 12:34:48;;;;;;;1.83;0.93;;;;;;;;;;5094962;28;20232;-68
2022/11/08 12:37:19;;;;;;;4.67;1.20;;;;;;;;;;5098318;28;20248;-69
2022/11/08 12:39:49;;;;;;;1.47;1.17;;;;;;;;;;5097805;28;20609;-68
2022/11/08 12:42:33;;;;;;;1.07;0.90;;;;;;;;;;5097056;28;20229;-67
2022/11/08 12:45:09;;;;;;;0.90;0.90;;;;;;;;;;5090325;28;20261;-68
2022/11/08 12:47:40;;;;;;;1.80;1.50;;;;;;;;;;5098256;28;20205;-68
2022/11/08 12:50:20;;;;;;;2.23;1.03;;;;;;;;;;5098466;28;20206;-69
2022/11/08 12:53:06;;;;;;;1.17;1.00;;;;;;;;;;5098560;28;20209;-67
2022/11/08 12:55:36;;;;;;;1.60;1.10;;;;;;;;;;5098553;28;20209;-66
2022/11/08 12:58:15;;;;;;;4.13;1.20;;;;;;;;;;5097936;28;20236;-69
2022/11/08 13:00:44;;;;;;;2.00;0.87;;;;;;;;;;5097758;28;20221;-68
2022/11/08 13:03:22;;;;;;;2.40;1.03;;;;;;;;;;5098207;28;20217;-68
2022/11/08 13:05:52;;;;;;;2.87;0.93;;;;;;;;;;5098072;28;20206;-67
2022/11/08 13:08:24;;;;;;;1.07;0.93;;;;;;;;;;5098061;28;20677;-69
2022/11/08 13:10:56;;;;;;;1.87;0.93;;;;;;;;;;5097319;28;20217;-70
2022/11/08 13:13:31;;;;;;;3.77;1.50;;;;;;;;;;5097715;28;20230;-66
2022/11/08 13:16:10;;;;;;;2.47;0.80;;;;;;;;;;5097708;28;20660;-68
2022/11/08 13:18:43;;;;;;;4.13;1.07;;;;;;;;;;5094785;28;20215;-66
2022/11/08 13:21:36;;;;;;;0.97;0.83;;;;;;;;;;5098091;28;20226;-66
2022/11/08 13:24:23;;;;;;;3.40;1.10;;;;;;;;;;5095032;28;20308;-66
2022/11/08 13:27:21;;;;;;;1.67;1.00;;;;;;;;;;5097714;28;20274;-67
2022/11/08 13:29:50;;;;;;;1.07;1.00;;;;;;;;;;5097524;28;20199;-67
2022/11/08 13:32:24;;;;;;;3.07;1.20;;;;;;;;;;5097105;28;20573;-67
2022/11/08 13:34:56;;;;;;;2.80;1.13;;;;;;;;;;5097770;28;20229;-66
2022/11/08 13:37:32;;;;;;;1.20;1.10;;;;;;;;;;5096228;28;20201;-67
2022/11/08 13:40:09;;;;;;;3.60;1.40;;;;;;;;;;5097554;28;20231;-67
2022/11/08 13:42:39;;;;;;;2.03;0.80;;;;;;;;;;5097600;28;20632;-67
2022/11/08 13:45:23;;;;;;;1.60;0.87;;;;;;;;;;5097451;28;20229;-67
2022/11/08 13:47:53;;;;;;;2.80;0.90;;;;;;;;;;5095925;28;20673;-67
2022/11/08 13:50:39;;;;;;;1.43;1.00;;;;;;;;;;5088695;28;20204;-67
2022/11/08 13:53:08;;;;;;;1.60;1.00;;;;;;;;;;5084340;28;20668;-67
2022/11/08 13:55:43;;;;;;;2.03;1.00;;;;;;;;;;5097850;28;20210;-67
2022/11/08 13:58:26;;;;;;;2.23;1.30;;;;;;;;;;5096238;28;20229;-67
2022/11/08 14:00:56;;;;;;;1.47;1.00;;;;;;;;;;5097234;28;20229;-68
2022/11/08 14:03:43;;;;;;;2.63;1.20;;;;;;;;;;5097580;28;20225;-67
2022/11/08 14:06:14;;;;;;;1.63;1.03;;;;;;;;;;5097305;28;20682;-67
2022/11/08 14:08:48;;;;;;;2.83;1.07;;;;;;;;;;5097469;28;20210;-67
2022/11/08 14:11:25;;;;;;;3.03;1.03;;;;;;;;;;5097566;28;20206;-67
2022/11/08 14:14:02;;;;;;;2.90;1.10;;;;;;;;;;5097396;28;20229;-67
2022/11/08 14:16:33;;;;;;;2.53;1.00;;;;;;;;;;5097401;28;20211;-67
2022/11/08 14:19:16;;;;;;;3.73;1.00;;;;;;;;;;5086099;28;20549;-66
2022/11/08 14:21:49;;;;;;;1.27;1.10;;;;;;;;;;5101324;28;20225;-67
2022/11/08 14:24:18;;;;;;;3.00;1.20;;;;;;;;;;5101044;28;20229;-67
2022/11/08 14:26:46;;;;;;;2.77;1.10;;;;;;;;;;5101161;28;20209;-67
2022/11/08 14:29:15;;;;;;;4.30;1.43;;;;;;;;;;5100101;28;20216;-68
2022/11/08 14:31:45;;;;;;;3.77;1.30;;;;;;;;;;5100822;28;20198;-67
2022/11/08 14:34:29;;;;;;;1.47;0.90;;;;;;;;;;5100993;28;20727;-67
2022/11/08 14:36:58;;;;;;;1.30;1.20;;;;;;;;;;5100871;28;20213;-66
2022/11/08 14:39:28;;;;;;;3.60;1.27;;;;;;;;;;5101033;28;20213;-67
2022/11/08 14:41:58;;;;;;;1.60;1.10;;;;;;;;;;5101050;28;20226;-67
2022/11/08 14:44:26;;;;;;;3.43;1.10;;;;;;;;;;5100498;28;20247;-67
2022/11/08 14:46:55;;;;;;;2.93;1.20;;;;;;;;;;5100435;28;20583;-67
2022/11/08 14:49:30;;;;;;;2.57;1.10;;;;;;;;;;5100561;28;20201;-68
2022/11/08 14:52:11;;;;;;;8.43;1.33;;;;;;;;;;5100637;28;20209;-68
2022/11/08 14:54:40;;;;;;;1.77;0.90;;;;;;;;;;5100584;28;20229;-67
2022/11/08 14:57:27;;;;;;;7.20;1.30;;;;;;;;;;5099764;28;20229;-67
2022/11/08 14:59:55;;;;;;;2.43;1.33;;;;;;;;;;5100296;28;20206;-68
2022/11/08 15:02:25;;;;;;;4.03;1.00;;;;;;;;;;5099959;28;20237;-67
2022/11/08 15:04:53;;;;;;;3.33;1.43;;;;;;;;;;5099317;28;20221;-67
2022/11/08 15:07:22;;;;;;;2.73;1.03;;;;;;;;;;5099145;28;20201;-67
2022/11/08 15:09:51;;;;;;;2.70;1.40;;;;;;;;;;5099982;28;20569;-68
2022/11/08 15:12:20;;;;;;;2.60;1.13;;;;;;;;;;5100267;28;20205;-67
2022/11/08 15:14:51;;;;;;;3.80;1.20;;;;;;;;;;5100096;28;20724;-68
2022/11/08 15:17:36;;;;;;;2.73;1.10;;;;;;;;;;5096378;28;20208;-68
2022/11/08 15:20:07;;;;;;;2.80;1.27;;;;;;;;;;5100246;28;20216;-67
2022/11/08 15:22:36;;;;;;;1.60;1.17;;;;;;;;;;5100242;28;20233;-68
2022/11/08 15:25:16;;;;;;;4.87;1.07;;;;;;;;;;5100061;28;20221;-67
2022/11/08 15:27:46;;;;;;;2.20;1.40;;;;;;;;;;5099209;28;20268;-68
2022/11/08 15:30:15;;;;;;;2.03;1.10;;;;;;;;;;5099731;28;20193;-68
2022/11/08 15:32:44;;;;;;;1.33;1.23;;;;;;;;;;5098055;28;20194;-68
2022/11/08 15:35:24;;;;;;;4.00;1.60;;;;;;;;;;5096489;28;20226;-67
2022/11/08 15:37:58;;;;;;;4.23;1.40;;;;;;;;;;5099948;28;20213;-68
2022/11/08 15:40:29;;;;;;;3.60;1.20;;;;;;;;;;5099648;28;20204;-67
2022/11/08 15:42:58;;;;;;;1.90;1.10;;;;;;;;;;5099051;28;20222;-68
2022/11/08 15:45:27;;;;;;;1.83;1.27;;;;;;;;;;5099279;28;20567;-67
2022/11/08 15:48:01;;;;;;;5.83;2.77;;;;;;;;;;5099490;28;20266;-68
2022/11/08 15:50:31;;;;;;;4.80;1.47;;;;;;;;;;5099713;28;20223;-68
2022/11/08 15:52:59;;;;;;;3.53;1.53;;;;;;;;;;5099463;28;20205;-68